Terminal Aerodrome Forecast
Issued by NWS Pittsburgh, PA

Home | Current Version | Previous Version | Text Only | Print | Product List | Glossary On
Versions: 1 2 3 4 5 6 7 8 9 10 11 12 13 14 15 16 17 18 19 20 21 22 23 24 25 26 27
000
FTUS41 KPBZ 210800 AAB
TAFPIT
TAF AMD
KPIT 210858Z 2109/2212 25005KT P6SM SCT007 BKN015
      TEMPO 2109/2113 BKN007
     FM211500 28008KT P6SM -SHRA OVC015
     FM212100 31008KT P6SM VCSH BKN020=

USA.gov is the U.S. government's official web portal to all federal, state and local government web resources and services.